sensor_id;sensor_type;location;lat;lon;timestamp;pressure;altitude;pressure_sealevel;temperature;humidity
69980;BME280;57318;56.232;43.944;2023-09-12T00:01:41;99431.22;;;9.75;91.21
69980;BME280;57318;56.232;43.944;2023-09-12T00:04:06;99433.88;;;9.75;91.14
69980;BME280;57318;56.232;43.944;2023-09-12T00:06:32;99431.34;;;9.74;91.13
69980;BME280;57318;56.232;43.944;2023-09-12T00:08:58;99434.94;;;9.73;91.26
69980;BME280;57318;56.232;43.944;2023-09-12T00:11:23;99443.78;;;9.73;91.22
69980;BME280;57318;56.232;43.944;2023-09-12T00:13:51;99445.44;;;9.74;91.30
69980;BME280;57318;56.232;43.944;2023-09-12T00:16:17;99452.44;;;9.75;91.46
69980;BME280;57318;56.232;43.944;2023-09-12T00:18:43;99447.88;;;9.78;91.52
69980;BME280;57318;56.232;43.944;2023-09-12T00:21:11;99445.44;;;9.74;91.13
69980;BME280;57318;56.232;43.944;2023-09-12T00:23:37;99445.44;;;9.74;91.08
69980;BME280;57318;56.232;43.944;2023-09-12T00:26:02;99442.78;;;9.74;91.18
69980;BME280;57318;56.232;43.944;2023-09-12T00:28:28;99445.81;;;9.70;91.07
69980;BME280;57318;56.232;43.944;2023-09-12T00:30:54;99449.53;;;9.67;91.18
69980;BME280;57318;56.232;43.944;2023-09-12T00:33:19;99444.34;;;9.66;91.39
69980;BME280;57318;56.232;43.944;2023-09-12T00:35:45;99451.97;;;9.70;92.07
69980;BME280;57318;56.232;43.944;2023-09-12T00:38:11;99447.38;;;9.72;91.98
69980;BME280;57318;56.232;43.944;2023-09-12T00:40:37;99450.03;;;9.72;91.75
69980;BME280;57318;56.232;43.944;2023-09-12T00:43:03;99452.44;;;9.75;91.76
69980;BME280;57318;56.232;43.944;2023-09-12T00:45:29;99449.09;;;9.73;91.48
69980;BME280;57318;56.232;43.944;2023-09-12T00:47:58;99459.22;;;9.68;91.08
69980;BME280;57318;56.232;43.944;2023-09-12T00:50:26;99455.91;;;9.65;91.35
69980;BME280;57318;56.232;43.944;2023-09-12T00:52:52;99459.56;;;9.64;91.38
69980;BME280;57318;56.232;43.944;2023-09-12T00:55:19;99458.91;;;9.60;91.41
69980;BME280;57318;56.232;43.944;2023-09-12T00:57:45;99455.44;;;9.60;91.61
69980;BME280;57318;56.232;43.944;2023-09-12T01:00:12;99458.69;;;9.63;92.28
69980;BME280;57318;56.232;43.944;2023-09-12T01:02:40;99461.22;;;9.65;92.03
69980;BME280;57318;56.232;43.944;2023-09-12T01:05:10;99466.31;;;9.68;92.01
69980;BME280;57318;56.232;43.944;2023-09-12T01:07:37;99466.66;;;9.63;91.62
69980;BME280;57318;56.232;43.944;2023-09-12T01:10:04;99467.75;;;9.61;91.56
69980;BME280;57318;56.232;43.944;2023-09-12T01:12:30;99470.84;;;9.54;91.52
69980;BME280;57318;56.232;43.944;2023-09-12T01:14:56;99463.97;;;9.52;91.77
69980;BME280;57318;56.232;43.944;2023-09-12T01:17:23;99472.53;;;9.55;92.82
69980;BME280;57318;56.232;43.944;2023-09-12T01:19:49;99473.41;;;9.56;92.69
69980;BME280;57318;56.232;43.944;2023-09-12T01:22:19;99477.00;;;9.55;92.82
69980;BME280;57318;56.232;43.944;2023-09-12T01:27:50;99477.22;;;9.52;92.81
69980;BME280;57318;56.232;43.944;2023-09-12T01:30:19;99480.72;;;9.52;93.13
69980;BME280;57318;56.232;43.944;2023-09-12T01:32:45;99487.84;;;9.52;93.15
69980;BME280;57318;56.232;43.944;2023-09-12T01:35:14;99485.91;;;9.54;93.40
69980;BME280;57318;56.232;43.944;2023-09-12T01:37:40;99484.00;;;9.56;93.49
69980;BME280;57318;56.232;43.944;2023-09-12T01:40:06;99483.25;;;9.54;93.55
69980;BME280;57318;56.232;43.944;2023-09-12T01:42:37;99489.31;;;9.56;93.51
69980;BME280;57318;56.232;43.944;2023-09-12T01:45:04;99489.91;;;9.60;93.72
69980;BME280;57318;56.232;43.944;2023-09-12T01:47:31;99490.03;;;9.58;93.41
69980;BME280;57318;56.232;43.944;2023-09-12T01:49:58;99488.22;;;9.58;93.62
69980;BME280;57318;56.232;43.944;2023-09-12T01:52:26;99487.38;;;9.58;93.33
69980;BME280;57318;56.232;43.944;2023-09-12T01:54:53;99500.31;;;9.63;93.77
69980;BME280;57318;56.232;43.944;2023-09-12T01:57:21;99503.06;;;9.61;93.21
69980;BME280;57318;56.232;43.944;2023-09-12T01:59:48;99498.94;;;9.57;93.08
69980;BME280;57318;56.232;43.944;2023-09-12T02:02:17;99504.38;;;9.55;93.01
69980;BME280;57318;56.232;43.944;2023-09-12T02:04:52;99503.53;;;9.55;92.88
69980;BME280;57318;56.232;43.944;2023-09-12T02:07:23;99510.75;;;9.53;92.81
69980;BME280;57318;56.232;43.944;2023-09-12T02:09:49;99509.06;;;9.52;92.62
69980;BME280;57318;56.232;43.944;2023-09-12T02:12:15;99514.38;;;9.52;92.55
69980;BME280;57318;56.232;43.944;2023-09-12T02:14:41;99516.53;;;9.47;92.26
69980;BME280;57318;56.232;43.944;2023-09-12T02:17:06;99530.97;;;9.43;92.01
69980;BME280;57318;56.232;43.944;2023-09-12T02:19:32;99525.16;;;9.37;92.16
69980;BME280;57318;56.232;43.944;2023-09-12T02:21:58;99524.44;;;9.35;92.82
69980;BME280;57318;56.232;43.944;2023-09-12T02:24:24;99531.41;;;9.36;93.30
69980;BME280;57318;56.232;43.944;2023-09-12T02:26:50;99533.13;;;9.37;93.77
69980;BME280;57318;56.232;43.944;2023-09-12T02:29:16;99540.13;;;9.38;94.30
69980;BME280;57318;56.232;43.944;2023-09-12T02:31:41;99536.16;;;9.44;94.36
69980;BME280;57318;56.232;43.944;2023-09-12T02:34:08;99539.31;;;9.49;94.50
69980;BME280;57318;56.232;43.944;2023-09-12T02:36:34;99545.34;;;9.51;94.29
69980;BME280;57318;56.232;43.944;2023-09-12T02:39:00;99547.16;;;9.51;93.85
69980;BME280;57318;56.232;43.944;2023-09-12T02:41:26;99540.16;;;9.50;93.68
69980;BME280;57318;56.232;43.944;2023-09-12T02:43:52;99550.22;;;9.57;93.98
69980;BME280;57318;56.232;43.944;2023-09-12T02:46:17;99553.25;;;9.64;93.94
69980;BME280;57318;56.232;43.944;2023-09-12T02:48:43;99552.31;;;9.65;93.48
69980;BME280;57318;56.232;43.944;2023-09-12T02:51:09;99549.53;;;9.67;93.12
69980;BME280;57318;56.232;43.944;2023-09-12T02:53:34;99554.84;;;9.67;92.80
69980;BME280;57318;56.232;43.944;2023-09-12T02:56:00;99560.66;;;9.72;92.85
69980;BME280;57318;56.232;43.944;2023-09-12T02:58:26;99567.41;;;9.76;92.87
69980;BME280;57318;56.232;43.944;2023-09-12T03:00:51;99572.88;;;9.86;92.80
69980;BME280;57318;56.232;43.944;2023-09-12T03:03:22;99567.59;;;9.97;92.72
69980;BME280;57318;56.232;43.944;2023-09-12T03:05:48;99571.34;;;10.06;92.28
69980;BME280;57318;56.232;43.944;2023-09-12T03:08:22;99567.53;;;10.10;91.48
69980;BME280;57318;56.232;43.944;2023-09-12T03:10:54;99576.72;;;10.17;91.04
69980;BME280;57318;56.232;43.944;2023-09-12T03:13:20;99576.59;;;10.19;90.31
69980;BME280;57318;56.232;43.944;2023-09-12T03:15:46;99570.19;;;10.21;90.33
69980;BME280;57318;56.232;43.944;2023-09-12T03:18:11;99576.84;;;10.27;89.88
69980;BME280;57318;56.232;43.944;2023-09-12T03:20:38;99582.56;;;10.34;89.61
69980;BME280;57318;56.232;43.944;2023-09-12T03:23:05;99581.72;;;10.33;89.12
69980;BME280;57318;56.232;43.944;2023-09-12T03:25:38;99583.28;;;10.36;89.01
69980;BME280;57318;56.232;43.944;2023-09-12T03:28:04;99587.66;;;10.37;88.70
69980;BME280;57318;56.232;43.944;2023-09-12T03:30:32;99589.00;;;10.42;88.82
69980;BME280;57318;56.232;43.944;2023-09-12T03:32:58;99593.09;;;10.46;88.60
69980;BME280;57318;56.232;43.944;2023-09-12T03:35:25;99595.16;;;10.54;88.47
69980;BME280;57318;56.232;43.944;2023-09-12T03:37:51;99591.91;;;10.62;88.23
69980;BME280;57318;56.232;43.944;2023-09-12T03:40:16;99594.31;;;10.65;87.46
69980;BME280;57318;56.232;43.944;2023-09-12T03:42:42;99597.94;;;10.64;87.01
69980;BME280;57318;56.232;43.944;2023-09-12T03:45:08;99608.56;;;10.64;87.14
69980;BME280;57318;56.232;43.944;2023-09-12T03:47:34;99608.56;;;10.64;86.99
69980;BME280;57318;56.232;43.944;2023-09-12T03:50:00;99604.00;;;10.66;87.14
69980;BME280;57318;56.232;43.944;2023-09-12T03:52:25;99605.44;;;10.70;86.83
69980;BME280;57318;56.232;43.944;2023-09-12T03:54:51;99608.31;;;10.67;86.62
69980;BME280;57318;56.232;43.944;2023-09-12T03:57:17;99614.97;;;10.61;86.48
69980;BME280;57318;56.232;43.944;2023-09-12T03:59:42;99617.41;;;10.64;86.52
69980;BME280;57318;56.232;43.944;2023-09-12T04:02:08;99615.59;;;10.65;86.45
69980;BME280;57318;56.232;43.944;2023-09-12T04:04:34;99613.91;;;10.75;86.38
69980;BME280;57318;56.232;43.944;2023-09-12T04:07:00;99616.56;;;10.87;86.13
69980;BME280;57318;56.232;43.944;2023-09-12T04:09:26;99624.31;;;11.01;85.74
69980;BME280;57318;56.232;43.944;2023-09-12T04:11:53;99618.63;;;11.06;84.91
69980;BME280;57318;56.232;43.944;2023-09-12T04:14:21;99632.28;;;11.12;84.24
69980;BME280;57318;56.232;43.944;2023-09-12T04:16:46;99627.66;;;11.14;84.45
69980;BME280;57318;56.232;43.944;2023-09-12T04:19:14;99630.84;;;11.19;83.51
69980;BME280;57318;56.232;43.944;2023-09-12T04:21:40;99628.41;;;11.16;83.44
69980;BME280;57318;56.232;43.944;2023-09-12T04:24:06;99629.13;;;11.18;83.37
69980;BME280;57318;56.232;43.944;2023-09-12T04:26:33;99631.28;;;11.36;83.63
69980;BME280;57318;56.232;43.944;2023-09-12T04:28:58;99629.56;;;11.58;82.93
69980;BME280;57318;56.232;43.944;2023-09-12T04:31:24;99635.78;;;11.79;82.26
69980;BME280;57318;56.232;43.944;2023-09-12T04:33:53;99632.75;;;11.95;81.56
69980;BME280;57318;56.232;43.944;2023-09-12T04:36:20;99642.50;;;12.06;80.14
69980;BME280;57318;56.232;43.944;2023-09-12T04:38:45;99636.88;;;12.20;79.66
69980;BME280;57318;56.232;43.944;2023-09-12T04:41:13;99638.97;;;12.38;79.03
69980;BME280;57318;56.232;43.944;2023-09-12T04:43:43;99634.25;;;12.51;77.64
69980;BME280;57318;56.232;43.944;2023-09-12T04:46:12;99632.66;;;12.60;77.54
69980;BME280;57318;56.232;43.944;2023-09-12T04:48:38;99637.75;;;12.73;77.29
69980;BME280;57318;56.232;43.944;2023-09-12T04:51:04;99639.56;;;12.93;76.15
69980;BME280;57318;56.232;43.944;2023-09-12T04:53:30;99627.81;;;13.06;75.39
69980;BME280;57318;56.232;43.944;2023-09-12T04:56:01;99641.50;;;13.22;74.87
69980;BME280;57318;56.232;43.944;2023-09-12T04:58:27;99639.19;;;13.39;74.30
69980;BME280;57318;56.232;43.944;2023-09-12T05:00:54;99647.38;;;13.47;73.20
69980;BME280;57318;56.232;43.944;2023-09-12T05:03:19;99645.16;;;13.52;73.13
69980;BME280;57318;56.232;43.944;2023-09-12T05:05:47;99642.66;;;13.70;72.91
69980;BME280;57318;56.232;43.944;2023-09-12T05:08:12;99649.00;;;13.88;71.89
69980;BME280;57318;56.232;43.944;2023-09-12T05:10:38;99650.84;;;13.98;71.41
69980;BME280;57318;56.232;43.944;2023-09-12T05:13:05;99653.94;;;14.13;70.56
69980;BME280;57318;56.232;43.944;2023-09-12T05:15:30;99656.03;;;14.19;70.31
69980;BME280;57318;56.232;43.944;2023-09-12T05:17:56;99653.78;;;14.24;70.02
69980;BME280;57318;56.232;43.944;2023-09-12T05:20:22;99649.28;;;14.24;69.89
69980;BME280;57318;56.232;43.944;2023-09-12T05:22:47;99650.53;;;14.30;69.60
69980;BME280;57318;56.232;43.944;2023-09-12T05:25:13;99652.94;;;14.53;69.32
69980;BME280;57318;56.232;43.944;2023-09-12T05:27:39;99655.16;;;14.77;68.46
69980;BME280;57318;56.232;43.944;2023-09-12T05:30:05;99658.03;;;15.03;67.41
69980;BME280;57318;56.232;43.944;2023-09-12T05:32:31;99656.81;;;15.25;66.82
69980;BME280;57318;56.232;43.944;2023-09-12T05:34:57;99659.66;;;15.51;66.10
69980;BME280;57318;56.232;43.944;2023-09-12T05:37:22;99666.94;;;15.87;64.93
69980;BME280;57318;56.232;43.944;2023-09-12T05:39:48;99663.03;;;16.17;63.74
69980;BME280;57318;56.232;43.944;2023-09-12T05:42:14;99667.72;;;16.33;63.01
69980;BME280;57318;56.232;43.944;2023-09-12T05:44:50;99675.91;;;16.32;62.32
69980;BME280;57318;56.232;43.944;2023-09-12T05:47:21;99677.81;;;16.39;61.91
69980;BME280;57318;56.232;43.944;2023-09-12T05:49:47;99674.50;;;16.46;61.82
69980;BME280;57318;56.232;43.944;2023-09-12T05:52:13;99679.59;;;16.31;61.76
69980;BME280;57318;56.232;43.944;2023-09-12T05:54:40;99675.22;;;16.12;62.50
69980;BME280;57318;56.232;43.944;2023-09-12T05:57:09;99679.50;;;15.86;63.07
69980;BME280;57318;56.232;43.944;2023-09-12T05:59:37;99674.53;;;15.92;63.19
69980;BME280;57318;56.232;43.944;2023-09-12T06:02:07;99682.09;;;16.14;62.80
69980;BME280;57318;56.232;43.944;2023-09-12T06:04:35;99683.53;;;16.63;61.87
69980;BME280;57318;56.232;43.944;2023-09-12T06:07:12;99680.56;;;18.12;57.83
69980;BME280;57318;56.232;43.944;2023-09-12T06:09:37;99684.28;;;19.01;54.93
69980;BME280;57318;56.232;43.944;2023-09-12T06:12:04;99692.03;;;20.23;51.75
69980;BME280;57318;56.232;43.944;2023-09-12T06:14:29;99694.69;;;21.37;49.41
69980;BME280;57318;56.232;43.944;2023-09-12T06:16:55;99691.97;;;22.90;45.82
69980;BME280;57318;56.232;43.944;2023-09-12T06:19:21;99702.56;;;24.58;42.23
69980;BME280;57318;56.232;43.944;2023-09-12T06:21:47;99706.09;;;25.84;39.18
69980;BME280;57318;56.232;43.944;2023-09-12T06:24:14;99710.31;;;26.25;37.56
69980;BME280;57318;56.232;43.944;2023-09-12T06:26:41;99711.25;;;26.44;36.60
69980;BME280;57318;56.232;43.944;2023-09-12T06:29:07;99718.09;;;27.29;35.44
69980;BME280;57318;56.232;43.944;2023-09-12T06:31:33;99724.00;;;28.19;33.61
69980;BME280;57318;56.232;43.944;2023-09-12T06:33:59;99724.09;;;29.32;31.86
69980;BME280;57318;56.232;43.944;2023-09-12T06:36:25;99727.06;;;29.95;30.25
69980;BME280;57318;56.232;43.944;2023-09-12T06:38:51;99727.00;;;30.47;29.66
69980;BME280;57318;56.232;43.944;2023-09-12T06:41:20;99723.09;;;30.77;28.55
69980;BME280;57318;56.232;43.944;2023-09-12T06:43:46;99728.69;;;30.99;28.87
69980;BME280;57318;56.232;43.944;2023-09-12T06:46:12;99725.34;;;30.80;27.97
69980;BME280;57318;56.232;43.944;2023-09-12T06:48:37;99724.94;;;30.88;28.38
69980;BME280;57318;56.232;43.944;2023-09-12T06:51:04;99723.00;;;30.89;28.21
69980;BME280;57318;56.232;43.944;2023-09-12T06:53:30;99729.34;;;31.45;27.88
69980;BME280;57318;56.232;43.944;2023-09-12T06:55:56;99740.97;;;31.70;26.96
69980;BME280;57318;56.232;43.944;2023-09-12T06:58:22;99732.56;;;32.53;25.74
69980;BME280;57318;56.232;43.944;2023-09-12T07:00:48;99741.25;;;33.04;24.62
69980;BME280;57318;56.232;43.944;2023-09-12T07:03:14;99744.88;;;33.48;24.92
69980;BME280;57318;56.232;43.944;2023-09-12T07:05:41;99741.47;;;33.83;23.99
69980;BME280;57318;56.232;43.944;2023-09-12T07:08:07;99744.63;;;33.59;23.93
69980;BME280;57318;56.232;43.944;2023-09-12T07:10:34;99744.63;;;33.17;24.62
69980;BME280;57318;56.232;43.944;2023-09-12T07:13:01;99737.22;;;33.17;24.88
69980;BME280;57318;56.232;43.944;2023-09-12T07:15:28;99741.59;;;33.56;23.90
69980;BME280;57318;56.232;43.944;2023-09-12T07:17:54;99742.13;;;33.58;24.16
69980;BME280;57318;56.232;43.944;2023-09-12T07:20:21;99748.34;;;33.75;23.86
69980;BME280;57318;56.232;43.944;2023-09-12T07:22:47;99749.91;;;34.34;22.93
69980;BME280;57318;56.232;43.944;2023-09-12T07:25:13;99750.22;;;34.69;22.17
69980;BME280;57318;56.232;43.944;2023-09-12T07:27:39;99746.34;;;35.16;21.90
69980;BME280;57318;56.232;43.944;2023-09-12T07:30:06;99747.41;;;35.51;21.40
69980;BME280;57318;56.232;43.944;2023-09-12T07:32:32;99747.28;;;35.92;20.93
69980;BME280;57318;56.232;43.944;2023-09-12T07:34:58;99754.13;;;36.55;19.97
69980;BME280;57318;56.232;43.944;2023-09-12T07:37:24;99755.50;;;36.92;19.31
69980;BME280;57318;56.232;43.944;2023-09-12T07:39:50;99749.56;;;37.33;18.85
69980;BME280;57318;56.232;43.944;2023-09-12T07:42:16;99746.53;;;37.59;18.45
69980;BME280;57318;56.232;43.944;2023-09-12T07:44:41;99751.19;;;37.64;18.26
69980;BME280;57318;56.232;43.944;2023-09-12T07:47:07;99751.28;;;37.78;17.91
69980;BME280;57318;56.232;43.944;2023-09-12T07:49:33;99747.88;;;37.37;18.21
69980;BME280;57318;56.232;43.944;2023-09-12T07:51:59;99757.16;;;36.93;18.28
69980;BME280;57318;56.232;43.944;2023-09-12T07:54:24;99751.56;;;36.19;19.94
69980;BME280;57318;56.232;43.944;2023-09-12T07:56:50;99750.66;;;35.64;20.64
69980;BME280;57318;56.232;43.944;2023-09-12T07:59:16;99761.25;;;36.17;19.84
69980;BME280;57318;56.232;43.944;2023-09-12T08:01:42;99748.88;;;36.04;20.14
69980;BME280;57318;56.232;43.944;2023-09-12T08:04:07;99754.16;;;35.95;20.19
69980;BME280;57318;56.232;43.944;2023-09-12T08:06:33;99748.53;;;35.45;20.33
69980;BME280;57318;56.232;43.944;2023-09-12T08:08:59;99742.50;;;35.33;20.34
69980;BME280;57318;56.232;43.944;2023-09-12T08:11:26;99740.25;;;35.45;19.99
69980;BME280;57318;56.232;43.944;2023-09-12T08:13:52;99746.63;;;35.35;20.12
69980;BME280;57318;56.232;43.944;2023-09-12T08:16:18;99750.78;;;35.28;19.99
69980;BME280;57318;56.232;43.944;2023-09-12T08:18:44;99742.78;;;35.31;20.15
69980;BME280;57318;56.232;43.944;2023-09-12T08:21:10;99744.56;;;35.82;19.93
69980;BME280;57318;56.232;43.944;2023-09-12T08:23:36;99751.75;;;35.83;19.76
69980;BME280;57318;56.232;43.944;2023-09-12T08:26:02;99744.59;;;36.32;18.67
69980;BME280;57318;56.232;43.944;2023-09-12T08:28:28;99748.66;;;36.45;18.67
69980;BME280;57318;56.232;43.944;2023-09-12T08:30:56;99738.16;;;36.42;18.95
69980;BME280;57318;56.232;43.944;2023-09-12T08:33:21;99740.53;;;36.59;18.56
69980;BME280;57318;56.232;43.944;2023-09-12T08:35:49;99743.44;;;36.78;18.40
69980;BME280;57318;56.232;43.944;2023-09-12T08:38:14;99744.06;;;36.64;18.14
69980;BME280;57318;56.232;43.944;2023-09-12T08:40:40;99739.00;;;36.37;18.55
69980;BME280;57318;56.232;43.944;2023-09-12T08:43:07;99737.34;;;35.81;18.74
69980;BME280;57318;56.232;43.944;2023-09-12T08:45:35;99736.41;;;35.31;19.41
69980;BME280;57318;56.232;43.944;2023-09-12T08:48:01;99734.19;;;35.22;19.22
69980;BME280;57318;56.232;43.944;2023-09-12T08:50:29;99732.72;;;35.56;18.94
69980;BME280;57318;56.232;43.944;2023-09-12T08:52:58;99736.44;;;34.95;19.08
69980;BME280;57318;56.232;43.944;2023-09-12T08:55:24;99728.72;;;34.56;20.10
69980;BME280;57318;56.232;43.944;2023-09-12T08:57:50;99727.59;;;34.51;19.59
69980;BME280;57318;56.232;43.944;2023-09-12T09:00:16;99728.41;;;34.42;19.82
69980;BME280;57318;56.232;43.944;2023-09-12T09:02:43;99730.81;;;34.12;20.22
69980;BME280;57318;56.232;43.944;2023-09-12T09:05:11;99722.38;;;33.66;20.84
69980;BME280;57318;56.232;43.944;2023-09-12T09:07:39;99718.47;;;33.57;21.26
69980;BME280;57318;56.232;43.944;2023-09-12T09:10:07;99716.31;;;33.69;20.69
69980;BME280;57318;56.232;43.944;2023-09-12T09:12:34;99715.84;;;33.83;20.21
69980;BME280;57318;56.232;43.944;2023-09-12T09:15:22;99719.03;;;34.27;19.62
69980;BME280;57318;56.232;43.944;2023-09-12T09:17:49;99716.81;;;34.55;19.86
69980;BME280;57318;56.232;43.944;2023-09-12T09:20:22;99709.69;;;34.80;19.43
69980;BME280;57318;56.232;43.944;2023-09-12T09:23:09;99714.88;;;34.71;18.88
69980;BME280;57318;56.232;43.944;2023-09-12T09:25:40;99717.38;;;34.52;18.92
69980;BME280;57318;56.232;43.944;2023-09-12T09:28:17;99714.34;;;34.48;18.60
69980;BME280;57318;56.232;43.944;2023-09-12T09:30:47;99711.31;;;34.65;18.27
69980;BME280;57318;56.232;43.944;2023-09-12T09:33:21;99713.69;;;35.49;18.13
69980;BME280;57318;56.232;43.944;2023-09-12T09:35:48;99712.72;;;36.35;17.61
69980;BME280;57318;56.232;43.944;2023-09-12T09:38:14;99717.09;;;37.39;16.43
69980;BME280;57318;56.232;43.944;2023-09-12T09:40:43;99718.66;;;37.94;15.45
69980;BME280;57318;56.232;43.944;2023-09-12T09:43:09;99722.19;;;38.37;15.27
69980;BME280;57318;56.232;43.944;2023-09-12T09:45:43;99724.59;;;38.63;14.77
69980;BME280;57318;56.232;43.944;2023-09-12T09:48:23;99722.97;;;38.76;14.94
69980;BME280;57318;56.232;43.944;2023-09-12T09:50:50;99722.00;;;38.99;14.28
69980;BME280;57318;56.232;43.944;2023-09-12T09:53:25;99718.97;;;39.43;13.42
69980;BME280;57318;56.232;43.944;2023-09-12T09:55:51;99730.84;;;39.76;13.48
69980;BME280;57318;56.232;43.944;2023-09-12T09:58:17;99732.09;;;38.43;13.96
69980;BME280;57318;56.232;43.944;2023-09-12T10:00:43;99719.84;;;37.63;14.76
69980;BME280;57318;56.232;43.944;2023-09-12T10:03:10;99716.25;;;37.63;15.26
69980;BME280;57318;56.232;43.944;2023-09-12T10:05:38;99724.25;;;38.07;14.85
69980;BME280;57318;56.232;43.944;2023-09-12T10:08:07;99720.16;;;38.62;14.38
69980;BME280;57318;56.232;43.944;2023-09-12T10:10:35;99726.28;;;38.78;13.75
69980;BME280;57318;56.232;43.944;2023-09-12T10:13:04;99721.38;;;38.89;13.77
69980;BME280;57318;56.232;43.944;2023-09-12T10:15:30;99725.09;;;38.98;14.02
69980;BME280;57318;56.232;43.944;2023-09-12T10:18:00;99726.75;;;38.99;14.01
69980;BME280;57318;56.232;43.944;2023-09-12T10:20:37;99723.19;;;38.79;14.14
69980;BME280;57318;56.232;43.944;2023-09-12T10:23:45;99717.22;;;38.72;14.44
69980;BME280;57318;56.232;43.944;2023-09-12T10:25:52;99721.00;;;39.09;14.34
69980;BME280;57318;56.232;43.944;2023-09-12T10:28:19;99714.25;;;39.43;14.07
69980;BME280;57318;56.232;43.944;2023-09-12T10:30:45;99717.44;;;39.78;13.53
69980;BME280;57318;56.232;43.944;2023-09-12T10:33:13;99720.38;;;40.10;13.81
69980;BME280;57318;56.232;43.944;2023-09-12T10:35:40;99720.38;;;39.96;13.69
69980;BME280;57318;56.232;43.944;2023-09-12T10:38:07;99715.50;;;39.51;13.84
69980;BME280;57318;56.232;43.944;2023-09-12T10:40:38;99713.38;;;39.01;14.27
69980;BME280;57318;56.232;43.944;2023-09-12T10:43:04;99706.72;;;38.50;14.77
69980;BME280;57318;56.232;43.944;2023-09-12T10:45:32;99708.41;;;38.32;15.16
69980;BME280;57318;56.232;43.944;2023-09-12T10:47:58;99706.53;;;38.79;15.08
69980;BME280;57318;56.232;43.944;2023-09-12T10:50:24;99717.72;;;38.74;14.56
69980;BME280;57318;56.232;43.944;2023-09-12T10:52:51;99709.66;;;38.40;14.85
69980;BME280;57318;56.232;43.944;2023-09-12T10:55:17;99702.13;;;36.52;15.99
69980;BME280;57318;56.232;43.944;2023-09-12T10:58:06;99696.41;;;34.56;17.63
69980;BME280;57318;56.232;43.944;2023-09-12T11:00:32;99690.63;;;32.68;19.52
69980;BME280;57318;56.232;43.944;2023-09-12T11:03:44;99687.72;;;32.52;19.85
69980;BME280;57318;56.232;43.944;2023-09-12T11:05:52;99693.72;;;33.14;19.57
69980;BME280;57318;56.232;43.944;2023-09-12T11:08:18;99705.16;;;34.07;19.22
69980;BME280;57318;56.232;43.944;2023-09-12T11:10:44;99693.94;;;34.80;18.49
69980;BME280;57318;56.232;43.944;2023-09-12T11:13:19;99684.63;;;35.67;17.83
69980;BME280;57318;56.232;43.944;2023-09-12T11:16:10;99696.13;;;36.40;16.50
69980;BME280;57318;56.232;43.944;2023-09-12T11:19:14;99693.53;;;35.49;16.90
69980;BME280;57318;56.232;43.944;2023-09-12T11:21:46;99698.75;;;33.80;17.75
69980;BME280;57318;56.232;43.944;2023-09-12T11:24:13;99690.38;;;32.42;19.22
69980;BME280;57318;56.232;43.944;2023-09-12T11:27:01;99691.44;;;31.03;20.55
69980;BME280;57318;56.232;43.944;2023-09-12T11:29:29;99698.78;;;31.81;20.29
69980;BME280;57318;56.232;43.944;2023-09-12T11:31:58;99692.63;;;32.78;19.63
69980;BME280;57318;56.232;43.944;2023-09-12T11:34:28;99699.91;;;33.37;18.84
69980;BME280;57318;56.232;43.944;2023-09-12T11:36:58;99693.78;;;33.30;18.37
69980;BME280;57318;56.232;43.944;2023-09-12T11:39:29;99697.75;;;33.49;18.28
69980;BME280;57318;56.232;43.944;2023-09-12T11:41:57;99697.13;;;34.00;18.38
69980;BME280;57318;56.232;43.944;2023-09-12T11:44:23;99688.69;;;34.53;17.70
69980;BME280;57318;56.232;43.944;2023-09-12T11:46:49;99695.03;;;34.53;17.55
69980;BME280;57318;56.232;43.944;2023-09-12T11:49:17;99693.38;;;34.52;17.26
69980;BME280;57318;56.232;43.944;2023-09-12T11:54:17;99690.03;;;35.07;17.49
69980;BME280;57318;56.232;43.944;2023-09-12T11:56:43;99684.81;;;34.64;17.72
69980;BME280;57318;56.232;43.944;2023-09-12T11:59:10;99684.53;;;34.66;17.67
69980;BME280;57318;56.232;43.944;2023-09-12T12:01:35;99681.78;;;34.61;17.67
69980;BME280;57318;56.232;43.944;2023-09-12T12:04:01;99684.69;;;33.92;18.04
69980;BME280;57318;56.232;43.944;2023-09-12T12:06:28;99690.25;;;32.91;19.37
69980;BME280;57318;56.232;43.944;2023-09-12T12:08:55;99670.28;;;31.60;20.38
69980;BME280;57318;56.232;43.944;2023-09-12T12:11:21;99670.72;;;30.95;21.19
69980;BME280;57318;56.232;43.944;2023-09-12T12:13:47;99676.19;;;31.12;21.01
69980;BME280;57318;56.232;43.944;2023-09-12T12:16:18;99673.66;;;31.50;20.55
69980;BME280;57318;56.232;43.944;2023-09-12T12:18:44;99670.53;;;31.58;20.44
69980;BME280;57318;56.232;43.944;2023-09-12T12:21:10;99676.16;;;31.29;20.76
69980;BME280;57318;56.232;43.944;2023-09-12T12:23:36;99675.34;;;31.73;20.36
69980;BME280;57318;56.232;43.944;2023-09-12T12:26:09;99668.13;;;31.67;20.47
69980;BME280;57318;56.232;43.944;2023-09-12T12:28:35;99676.03;;;30.85;21.29
69980;BME280;57318;56.232;43.944;2023-09-12T12:31:01;99676.88;;;31.03;21.47
69980;BME280;57318;56.232;43.944;2023-09-12T12:33:27;99670.19;;;31.16;21.44
69980;BME280;57318;56.232;43.944;2023-09-12T12:36:01;99674.25;;;31.52;20.76
69980;BME280;57318;56.232;43.944;2023-09-12T12:38:27;99682.91;;;31.44;20.85
69980;BME280;57318;56.232;43.944;2023-09-12T12:40:53;99677.66;;;31.59;20.38
69980;BME280;57318;56.232;43.944;2023-09-12T12:43:18;99672.88;;;31.99;20.50
69980;BME280;57318;56.232;43.944;2023-09-12T12:45:55;99676.78;;;32.30;20.09
69980;BME280;57318;56.232;43.944;2023-09-12T12:48:34;99674.81;;;32.53;19.86
69980;BME280;57318;56.232;43.944;2023-09-12T12:53:47;99681.31;;;32.74;19.49
69980;BME280;57318;56.232;43.944;2023-09-12T12:56:15;99675.59;;;32.21;20.46
69980;BME280;57318;56.232;43.944;2023-09-12T12:58:46;99683.72;;;31.61;21.08
69980;BME280;57318;56.232;43.944;2023-09-12T13:01:13;99683.94;;;31.38;21.03
69980;BME280;57318;56.232;43.944;2023-09-12T13:03:40;99680.34;;;31.15;20.66